Terminal Aerodrome Forecast
Issued by NWS

Home | Current Version | Previous Version | Text Only | Print | Product List | Glossary On
Versions: 1 2 3 4 5 6 7 8 9 10 11 12 13 14 15 16 17 18 19 20 21 22
000
FTUS46 KSEW 202300
TAFOLM
TAF
KOLM 202320Z 2100/2124 06009KT P6SM SKC
     FM210300 00000KT P6SM SKC
     FM211200 00000KT 3SM MIFG SKC
     FM211600 24006KT P6SM SKC=

USA.gov is the U.S. government's official web portal to all federal, state and local government web resources and services.